Terminal Aerodrome Forecast
Issued by NWS

Home | Current Version | Previous Version | Graphics & Text | Print | Product List | Glossary On
Versions: 1 2 3 4 5 6 7 8 9 10 11 12 13 14 15 16
777
FTUS43 KBIS 241234 AAA
TAFMOT
TAF AMD
KMOT 241234Z 2413/2512 30012KT P6SM OVC029
     FM241500 31016G24KT P6SM SCT020 BKN030
     FM241700 32017G25KT P6SM BKN035 BKN045
     FM242200 33017G25KT P6SM SCT045 SCT070
     FM250200 32009KT P6SM FEW050
     FM250800 26005KT P6SM BKN060=

USA.gov is the U.S. government's official web portal to all federal, state and local government web resources and services.